Time;durP1;ratioP1;P1;durP2;ratioP2;P2;SDS_P1;SDS_P2;PMS_P1;PMS_P2;Temp;Humidity;BMP_temperature;BMP_pressure;BME280_temperature;BME280_humidity;BME280_pressure;Samples;Min_cycle;Max_cycle;Signal;HPM_P1;HPM_P2
2023/01/18 00:00:27;;;;;;;3.67;2.20;;;1.30;81.10;;;;;;4972726;28;20026;-76
2023/01/18 00:02:53;;;;;;;3.83;2.30;;;1.40;81.00;;;;;;4972729;28;20437;-76
2023/01/18 00:05:21;;;;;;;3.40;2.25;;;1.50;80.90;;;;;;4972705;28;20023;-77
2023/01/18 00:07:47;;;;;;;3.65;2.63;;;1.50;80.90;;;;;;4972514;28;20027;-77
2023/01/18 00:10:13;;;;;;;2.70;2.15;;;1.50;80.90;;;;;;4972939;28;20023;-76
2023/01/18 00:12:38;;;;;;;3.65;2.08;;;1.50;81.00;;;;;;4972906;28;20383;-76
2023/01/18 00:15:05;;;;;;;1.88;1.67;;;1.50;81.00;;;;;;4972626;28;20057;-77
2023/01/18 00:17:30;;;;;;;3.25;2.10;;;1.50;81.00;;;;;;4972642;28;20058;-77
2023/01/18 00:19:56;;;;;;;3.28;1.75;;;1.50;80.90;;;;;;4973129;28;20478;-77
2023/01/18 00:22:22;;;;;;;2.20;1.40;;;1.50;80.90;;;;;;4972841;28;20125;-77
2023/01/18 00:24:47;;;;;;;1.83;1.30;;;1.50;79.80;;;;;;4971908;28;20063;-77
2023/01/18 00:27:13;;;;;;;2.42;1.60;;;1.50;79.70;;;;;;4972583;28;20108;-76
2023/01/18 00:29:38;;;;;;;1.95;1.63;;;1.50;79.30;;;;;;4972336;28;20467;-76
2023/01/18 00:32:04;;;;;;;2.38;1.55;;;1.50;79.60;;;;;;4972239;28;20054;-77
2023/01/18 00:34:30;;;;;;;1.83;1.35;;;1.50;79.80;;;;;;4972072;28;20035;-76
2023/01/18 00:36:56;;;;;;;2.72;1.73;;;1.50;80.00;;;;;;4972328;28;20046;-76
2023/01/18 00:39:21;;;;;;;1.70;1.45;;;1.50;80.10;;;;;;4971916;28;20043;-74
2023/01/18 00:44:31;;;;;;;2.33;1.65;;;1.60;80.30;;;;;;4973357;28;20148;-75
2023/01/18 00:46:57;;;;;;;3.38;1.60;;;1.60;80.30;;;;;;4971995;28;20027;-75
2023/01/18 00:49:23;;;;;;;1.60;1.20;;;1.60;80.30;;;;;;4971902;28;20049;-75
2023/01/18 00:51:51;;;;;;;1.60;1.30;;;1.60;79.70;;;;;;4972249;28;20419;-76
2023/01/18 00:54:17;;;;;;;2.55;1.52;;;1.60;79.80;;;;;;4974727;28;20483;-76
2023/01/18 00:56:43;;;;;;;0.82;0.80;;;1.60;80.00;;;;;;4975026;28;20027;-76
2023/01/18 00:59:08;;;;;;;1.23;0.77;;;1.60;80.20;;;;;;4974975;28;20045;-75
2023/01/18 01:01:34;;;;;;;1.10;0.90;;;1.60;80.20;;;;;;4975276;28;20046;-75
2023/01/18 01:06:44;;;;;;;1.35;0.95;;;1.70;80.00;;;;;;4992480;28;20030;-75
2023/01/18 01:09:19;;;;;;;1.10;1.00;;;1.70;80.00;;;;;;4974943;28;20014;-75
2023/01/18 01:28:12;;;;;;;2.03;0.73;;;1.70;80.00;;;;;;5017511;28;20035;-75
2023/01/18 01:30:37;;;;;;;0.70;0.70;;;1.80;80.00;;;;;;5056432;28;20032;-75
2023/01/18 01:33:03;;;;;;;2.70;0.93;;;1.70;79.90;;;;;;5056273;28;20154;-78
2023/01/18 01:35:29;;;;;;;0.85;0.70;;;1.70;80.10;;;;;;5055994;28;20051;-75
2023/01/18 01:37:54;;;;;;;1.00;0.80;;;1.70;80.30;;;;;;5055667;28;20024;-76
2023/01/18 01:40:20;;;;;;;1.25;0.80;;;1.70;80.40;;;;;;5056370;28;20033;-76
2023/01/18 01:42:46;;;;;;;0.60;0.60;;;1.70;80.80;;;;;;5056528;28;20028;-76
2023/01/18 01:45:11;;;;;;;1.58;1.10;;;1.70;80.80;;;;;;5056466;28;20115;-76
2023/01/18 01:47:42;;;;;;;0.73;0.70;;;1.70;81.10;;;;;;5056084;28;20435;-76
2023/01/18 01:50:41;;;;;;;0.90;0.63;;;1.70;81.20;;;;;;5056003;28;20523;-76
2023/01/18 01:53:08;;;;;;;2.83;0.90;;;1.70;81.30;;;;;;5043333;28;20043;-77
2023/01/18 01:55:36;;;;;;;1.48;0.77;;;1.70;81.40;;;;;;5056094;28;20041;-76
2023/01/18 01:58:04;;;;;;;1.67;0.50;;;1.80;81.30;;;;;;5055868;28;20492;-77
2023/01/18 02:00:31;;;;;;;0.70;0.55;;;1.80;81.10;;;;;;5056092;28;20070;-76
2023/01/18 02:03:02;;;;;;;0.52;0.50;;;1.70;80.90;;;;;;5056129;28;20082;-76
2023/01/18 02:05:29;;;;;;;1.30;0.55;;;1.80;80.80;;;;;;5056116;28;20020;-76
2023/01/18 02:07:58;;;;;;;0.57;0.40;;;1.70;80.80;;;;;;5056163;28;20021;-78
2023/01/18 02:10:23;;;;;;;0.73;0.60;;;1.70;81.00;;;;;;5056236;28;20075;-76
2023/01/18 02:12:52;;;;;;;0.80;0.38;;;1.70;81.00;;;;;;5055701;28;20608;-76
2023/01/18 02:15:21;;;;;;;0.45;0.40;;;1.70;81.00;;;;;;5055964;28;20027;-76
2023/01/18 02:18:12;;;;;;;0.32;0.32;;;1.70;80.60;;;;;;5055606;28;20037;-77
2023/01/18 02:20:59;;;;;;;1.10;0.60;;;1.80;80.30;;;;;;5055768;28;20040;-77
2023/01/18 02:23:47;;;;;;;0.50;0.35;;;1.80;80.00;;;;;;5055405;28;20078;-75
2023/01/18 02:26:32;;;;;;;0.88;0.30;;;1.80;79.70;;;;;;5055254;28;20031;-75
2023/01/18 02:29:20;;;;;;;0.85;0.60;;;1.90;80.10;;;;;;5055146;28;20392;-76
2023/01/18 02:32:11;;;;;;;0.90;0.60;;;1.80;79.90;;;;;;5054587;28;20025;-75
2023/01/18 02:34:46;;;;;;;1.73;1.30;;;1.80;80.10;;;;;;5055262;28;20035;-77
2023/01/18 02:37:19;;;;;;;;;;;1.90;80.40;;;;;;5055582;28;20141;-75
2023/01/18 02:40:03;;;;;;;5.57;3.22;;;1.80;80.40;;;;;;5071670;28;19908;-76
2023/01/18 02:48:06;;;;;;;22.73;11.63;;;1.60;81.10;;;;;;5072786;28;20047;-75
2023/01/18 02:50:32;;;;;;;25.13;12.80;;;1.60;81.40;;;;;;5055127;28;20078;-75
2023/01/18 02:52:57;;;;;;;29.20;13.38;;;1.50;81.70;;;;;;5055019;28;20059;-74
2023/01/18 02:55:30;;;;;;;29.45;14.02;;;1.40;81.80;;;;;;5054768;28;20044;-75
2023/01/18 02:58:03;;;;;;;25.50;13.30;;;1.40;82.20;;;;;;5054726;28;20029;-75
2023/01/18 03:00:32;;;;;;;21.00;11.10;;;1.30;82.40;;;;;;5054719;28;20024;-77
2023/01/18 03:03:00;;;;;;;22.20;10.63;;;1.30;82.80;;;;;;5055204;28;20072;-76
2023/01/18 03:05:28;;;;;;;18.50;9.88;;;1.30;83.80;;;;;;5054899;28;20025;-76
2023/01/18 03:08:05;;;;;;;19.80;10.15;;;1.20;83.10;;;;;;5055016;28;20032;-75
2023/01/18 03:10:37;;;;;;;18.38;9.07;;;1.20;83.20;;;;;;5055216;28;20484;-75
2023/01/18 03:13:29;;;;;;;16.75;8.90;;;1.20;83.20;;;;;;5054653;28;20025;-77
2023/01/18 03:16:08;;;;;;;17.50;8.85;;;1.20;83.30;;;;;;5071542;28;20021;-75
2023/01/18 03:19:01;;;;;;;17.35;8.90;;;1.30;83.40;;;;;;5054648;28;20032;-74
2023/01/18 03:21:43;;;;;;;21.13;9.93;;;1.20;83.10;;;;;;5054511;28;20025;-77
2023/01/18 03:24:10;;;;;;;7.80;4.15;;;1.30;83.20;;;;;;5054643;28;20039;-76
2023/01/18 03:26:40;;;;;;;10.82;4.78;;;1.20;82.50;;;;;;5054928;28;20065;-77
2023/01/18 03:34:50;;;;;;;4.20;2.22;;;1.30;81.90;;;;;;5073053;28;20027;-76
2023/01/18 03:37:38;;;;;;;1.48;1.17;;;1.30;80.40;;;;;;5055131;28;20021;-76
2023/01/18 03:40:05;;;;;;;0.63;0.60;;;1.30;79.30;;;;;;5055006;28;20044;-76
2023/01/18 03:42:58;;;;;;;1.02;0.60;;;1.40;79.00;;;;;;5055025;28;20025;-75
2023/01/18 03:45:32;;;;;;;0.98;0.60;;;1.50;78.30;;;;;;5054825;28;20033;-76
2023/01/18 03:48:00;;;;;;;0.50;0.43;;;1.50;78.50;;;;;;5054958;28;20035;-76
2023/01/18 03:50:40;;;;;;;0.70;0.60;;;1.50;77.90;;;;;;5054718;28;20020;-76
2023/01/18 03:53:12;;;;;;;0.52;0.30;;;1.50;78.20;;;;;;5054847;28;20020;-76
2023/01/18 03:56:12;;;;;;;0.60;0.40;;;1.50;78.30;;;;;;5054976;28;20047;-76
2023/01/18 03:58:39;;;;;;;0.57;0.50;;;1.60;78.50;;;;;;5070786;28;20043;-75
2023/01/18 04:01:05;;;;;;;0.32;0.32;;;1.60;78.20;;;;;;5057155;28;20024;-76
2023/01/18 04:03:32;;;;;;;0.85;0.60;;;1.60;78.50;;;;;;5058622;28;20028;-76
2023/01/18 04:06:01;;;;;;;0.85;0.60;;;1.50;78.20;;;;;;5058090;28;20021;-75
2023/01/18 04:08:26;;;;;;;0.98;0.60;;;1.60;78.00;;;;;;5058289;28;20048;-76
2023/01/18 04:10:53;;;;;;;0.90;0.60;;;1.60;78.60;;;;;;5058460;28;20469;-76
2023/01/18 04:13:18;;;;;;;0.85;0.70;;;1.60;79.30;;;;;;5058009;28;20029;-76
2023/01/18 04:15:44;;;;;;;4.15;2.75;;;1.60;79.50;;;;;;5058114;28;20033;-76
2023/01/18 04:18:10;;;;;;;9.80;4.10;;;1.60;80.70;;;;;;5041526;28;20338;-76
2023/01/18 04:20:35;;;;;;;13.60;7.38;;;1.60;81.20;;;;;;5041320;28;20027;-76
2023/01/18 04:23:01;;;;;;;12.73;6.82;;;1.50;82.80;;;;;;5058170;28;20428;-76
2023/01/18 04:25:27;;;;;;;16.00;8.35;;;1.30;84.40;;;;;;5057609;28;20090;-76
2023/01/18 04:27:53;;;;;;;14.55;8.10;;;1.30;84.80;;;;;;5041109;28;20028;-76
2023/01/18 04:30:18;;;;;;;9.23;5.40;;;1.30;85.30;;;;;;5057600;28;20021;-78
2023/01/18 04:32:45;;;;;;;10.02;5.22;;;1.30;86.10;;;;;;5041792;28;20048;-75
2023/01/18 04:35:11;;;;;;;9.05;5.20;;;1.20;86.00;;;;;;5062879;28;20032;-76
2023/01/18 04:37:37;;;;;;;9.18;4.70;;;1.30;85.80;;;;;;5057640;28;20029;-76
2023/01/18 04:40:04;;;;;;;7.55;4.18;;;1.30;85.70;;;;;;5057597;28;20046;-76
2023/01/18 04:42:30;;;;;;;5.20;3.67;;;1.30;85.80;;;;;;5041939;28;20028;-76
2023/01/18 04:44:56;;;;;;;7.80;4.25;;;1.30;85.50;;;;;;5056949;28;20025;-76
2023/01/18 04:47:21;;;;;;;8.15;4.07;;;1.30;85.80;;;;;;5057345;28;20472;-76
2023/01/18 04:49:47;;;;;;;7.18;4.25;;;1.30;85.80;;;;;;5040526;28;20032;-75
2023/01/18 04:52:13;;;;;;;6.93;3.80;;;1.40;85.60;;;;;;5057594;28;20020;-76
2023/01/18 04:54:38;;;;;;;8.57;4.43;;;1.40;85.60;;;;;;5056741;28;20116;-78
2023/01/18 04:57:04;;;;;;;7.30;3.28;;;1.40;85.30;;;;;;5057110;28;20040;-77
2023/01/18 04:59:29;;;;;;;4.65;2.20;;;1.40;85.00;;;;;;5056993;28;20025;-75
2023/01/18 05:01:56;;;;;;;6.15;3.53;;;1.40;84.80;;;;;;5057334;28;20021;-78
2023/01/18 05:04:22;;;;;;;3.67;1.60;;;1.40;84.50;;;;;;5057346;28;20031;-78
2023/01/18 05:06:51;;;;;;;5.68;2.75;;;1.40;84.20;;;;;;5057092;28;20024;-77
2023/01/18 05:09:16;;;;;;;4.55;2.22;;;1.40;84.30;;;;;;5056791;28;20016;-74
2023/01/18 05:11:42;;;;;;;6.18;2.00;;;1.30;84.40;;;;;;5056395;28;20028;-74
2023/01/18 05:14:08;;;;;;;3.38;1.40;;;1.30;84.40;;;;;;5057123;28;20017;-77
2023/01/18 05:16:34;;;;;;;1.65;1.20;;;1.30;84.50;;;;;;5056643;28;20408;-76
2023/01/18 05:18:59;;;;;;;1.13;0.88;;;1.30;83.90;;;;;;5056942;28;20063;-79
2023/01/18 05:21:25;;;;;;;1.77;0.85;;;1.30;83.40;;;;;;5056628;28;20445;-78
2023/01/18 05:23:51;;;;;;;0.75;0.75;;;1.20;83.10;;;;;;5056662;28;20024;-77
2023/01/18 05:26:19;;;;;;;1.60;0.70;;;1.20;82.50;;;;;;5056282;28;20027;-77
2023/01/18 05:28:45;;;;;;;2.58;0.80;;;1.10;82.60;;;;;;5056672;28;20020;-77
2023/01/18 05:31:13;;;;;;;1.38;0.80;;;1.10;82.20;;;;;;5056565;28;20024;-77
2023/01/18 05:33:39;;;;;;;1.00;0.85;;;1.10;81.60;;;;;;5056427;28;20016;-78
2023/01/18 05:36:05;;;;;;;1.05;0.70;;;1.10;81.60;;;;;;5056441;28;20469;-78
2023/01/18 05:38:31;;;;;;;0.75;0.55;;;1.00;81.70;;;;;;5056226;28;20174;-77
2023/01/18 05:40:57;;;;;;;1.63;1.00;;;1.00;82.00;;;;;;5055873;28;20491;-75
2023/01/18 05:43:25;;;;;;;1.35;0.80;;;1.20;83.60;;;;;;5056199;28;20017;-75
2023/01/18 05:45:51;;;;;;;0.90;0.90;;;1.30;83.90;;;;;;5055673;28;20025;-74
2023/01/18 05:48:17;;;;;;;2.13;0.90;;;1.30;83.00;;;;;;5056193;28;20469;-76
2023/01/18 05:50:44;;;;;;;3.17;1.55;;;1.30;82.40;;;;;;5056462;28;20020;-75
2023/01/18 05:53:12;;;;;;;1.27;1.13;;;1.40;82.70;;;;;;5056120;28;20025;-76
2023/01/18 05:55:38;;;;;;;6.55;1.67;;;1.30;82.70;;;;;;5055582;28;20068;-74
2023/01/18 05:58:04;;;;;;;1.38;0.95;;;1.50;86.70;;;;;;5055619;28;20477;-74
2023/01/18 06:00:30;;;;;;;3.45;1.25;;;1.60;84.10;;;;;;5055920;28;20030;-75
2023/01/18 06:02:55;;;;;;;2.97;1.48;;;1.80;84.20;;;;;;5055754;28;20020;-74
2023/01/18 06:05:22;;;;;;;3.85;1.70;;;1.70;81.30;;;;;;5055950;28;20106;-73
2023/01/18 06:07:48;;;;;;;2.42;1.70;;;1.50;81.40;;;;;;5056350;28;20020;-74
2023/01/18 06:10:14;;;;;;;3.72;2.17;;;1.30;82.20;;;;;;5063727;28;20115;-77
2023/01/18 06:12:40;;;;;;;2.63;1.98;;;1.20;83.00;;;;;;5056302;28;20029;-75
2023/01/18 06:15:07;;;;;;;2.55;1.70;;;1.00;84.10;;;;;;5073487;28;20033;-75
2023/01/18 06:17:33;;;;;;;3.30;2.10;;;0.80;85.20;;;;;;5055339;28;20032;-75
2023/01/18 06:20:00;;;;;;;2.85;1.90;;;0.70;86.00;;;;;;5055334;28;20025;-75
2023/01/18 06:22:26;;;;;;;1.75;1.65;;;0.70;86.40;;;;;;5054588;28;20064;-77
2023/01/18 06:24:52;;;;;;;1.42;1.33;;;0.70;86.60;;;;;;5055434;28;20068;-74
2023/01/18 06:27:17;;;;;;;2.58;1.88;;;0.70;86.70;;;;;;5055353;28;20021;-74
2023/01/18 06:29:43;;;;;;;2.10;1.80;;;0.70;86.80;;;;;;5054925;28;20052;-78
2023/01/18 06:32:08;;;;;;;2.25;1.90;;;0.70;87.60;;;;;;5054829;28;20473;-75
2023/01/18 06:34:35;;;;;;;1.63;1.50;;;0.70;86.70;;;;;;5055144;28;20021;-74
2023/01/18 06:37:02;;;;;;;3.47;1.83;;;0.70;87.00;;;;;;5055252;28;20029;-75
2023/01/18 06:39:28;;;;;;;4.05;2.00;;;0.70;87.40;;;;;;5054907;28;20043;-76
2023/01/18 06:41:53;;;;;;;4.05;2.55;;;0.80;87.40;;;;;;5055020;28;20028;-77
2023/01/18 06:44:20;;;;;;;4.13;2.95;;;0.80;88.20;;;;;;5055122;28;20381;-75
2023/01/18 06:46:46;;;;;;;3.30;2.70;;;0.80;87.40;;;;;;5054553;28;20028;-77
2023/01/18 06:49:12;;;;;;;4.47;2.88;;;0.80;87.50;;;;;;5071631;28;20032;-76
2023/01/18 06:51:38;;;;;;;6.60;4.53;;;0.80;87.60;;;;;;5054840;28;20114;-77
2023/01/18 06:54:04;;;;;;;6.93;4.72;;;0.70;86.90;;;;;;5054547;28;20024;-75
2023/01/18 06:56:29;;;;;;;6.68;5.22;;;0.70;86.40;;;;;;5054965;28;20039;-76
2023/01/18 06:58:57;;;;;;;10.07;5.28;;;0.60;86.60;;;;;;5054708;28;20377;-75
2023/01/18 07:01:23;;;;;;;9.85;5.50;;;0.60;86.90;;;;;;5055009;28;20494;-76
2023/01/18 07:03:50;;;;;;;5.65;4.55;;;0.60;87.00;;;;;;5054865;28;20389;-74
2023/01/18 07:06:16;;;;;;;8.43;5.47;;;0.60;86.50;;;;;;5054804;28;20389;-75
2023/01/18 07:08:42;;;;;;;8.23;5.07;;;0.60;86.30;;;;;;5054733;28;20037;-75
2023/01/18 07:11:11;;;;;;;6.18;4.40;;;0.70;85.90;;;;;;5054792;28;20047;-75
2023/01/18 07:13:42;;;;;;;8.27;4.75;;;0.60;85.40;;;;;;5054789;28;20099;-75
2023/01/18 07:16:16;;;;;;;7.13;4.45;;;0.50;85.60;;;;;;5054568;28;20025;-75
2023/01/18 07:18:47;;;;;;;5.50;4.07;;;0.40;85.30;;;;;;5054804;28;20481;-75
2023/01/18 07:21:13;;;;;;;8.27;4.60;;;0.40;85.50;;;;;;5054717;28;20275;-75
2023/01/18 07:23:40;;;;;;;7.03;3.92;;;0.40;85.50;;;;;;5028623;28;20379;-75
2023/01/18 07:26:15;;;;;;;4.55;3.33;;;0.40;84.90;;;;;;4972206;28;20530;-75
2023/01/18 07:28:41;;;;;;;5.07;3.00;;;0.40;84.70;;;;;;4972111;28;20044;-75
2023/01/18 07:31:07;;;;;;;7.40;3.90;;;0.40;84.90;;;;;;4971809;28;20022;-74
2023/01/18 07:33:35;;;;;;;7.15;3.95;;;0.40;85.00;;;;;;4956183;28;20505;-74
2023/01/18 07:36:03;;;;;;;6.53;4.38;;;0.40;84.80;;;;;;4975797;28;20121;-75
2023/01/18 07:38:29;;;;;;;5.88;3.75;;;0.50;85.30;;;;;;4976339;28;20447;-74
2023/01/18 07:41:10;;;;;;;6.95;4.22;;;0.50;85.00;;;;;;4976057;28;20113;-74
2023/01/18 07:43:36;;;;;;;7.93;4.13;;;0.60;86.10;;;;;;4976002;28;20058;-75
2023/01/18 07:46:03;;;;;;;5.50;3.65;;;0.60;84.80;;;;;;4992032;28;20031;-74
2023/01/18 07:48:30;;;;;;;7.85;3.80;;;0.60;84.80;;;;;;4976271;28;20495;-74
2023/01/18 07:50:57;;;;;;;11.00;4.50;;;0.70;85.00;;;;;;4976053;28;20072;-74
2023/01/18 07:53:25;;;;;;;7.20;4.30;;;0.70;84.00;;;;;;4975822;28;20030;-74
2023/01/18 07:55:52;;;;;;;4.97;3.92;;;0.80;84.00;;;;;;4975563;28;20046;-74
2023/01/18 07:58:18;;;;;;;8.80;4.50;;;0.90;83.70;;;;;;4975692;28;20053;-74
2023/01/18 08:00:45;;;;;;;4.75;3.83;;;1.00;83.40;;;;;;4975611;28;20100;-74
2023/01/18 08:03:15;;;;;;;7.72;4.60;;;1.00;83.00;;;;;;4961166;28;20039;-78
2023/01/18 08:05:43;;;;;;;10.02;4.55;;;1.00;82.60;;;;;;4993113;28;20030;-74
2023/01/18 08:08:10;;;;;;;9.45;4.05;;;1.00;83.60;;;;;;4975831;28;20023;-74
2023/01/18 08:10:36;;;;;;;9.40;4.43;;;1.10;83.10;;;;;;4975248;28;20054;-76
2023/01/18 08:13:01;;;;;;;7.55;3.92;;;1.10;82.80;;;;;;4975440;28;20054;-74
2023/01/18 08:15:28;;;;;;;6.53;4.10;;;1.10;82.70;;;;;;4975516;28;20065;-74
2023/01/18 08:17:54;;;;;;;8.60;4.30;;;1.10;83.00;;;;;;4959300;28;20477;-76
2023/01/18 08:20:22;;;;;;;5.70;4.28;;;1.20;83.10;;;;;;4976727;28;20061;-76
2023/01/18 08:22:55;;;;;;;6.13;3.55;;;1.30;83.10;;;;;;4978605;28;20022;-76
2023/01/18 08:25:22;;;;;;;4.60;3.47;;;1.30;82.10;;;;;;4975348;28;20033;-75
2023/01/18 08:27:47;;;;;;;6.35;3.83;;;1.30;82.60;;;;;;4974778;28;20019;-75
2023/01/18 08:30:13;;;;;;;3.90;3.05;;;1.20;81.60;;;;;;4975166;28;20026;-75
2023/01/18 08:32:38;;;;;;;8.23;4.13;;;1.30;81.80;;;;;;4974654;28;20026;-75
2023/01/18 08:35:06;;;;;;;6.13;3.85;;;1.30;81.50;;;;;;4976255;28;20038;-74
2023/01/18 08:37:31;;;;;;;14.25;5.70;;;1.20;80.40;;;;;;4974584;28;20038;-75
2023/01/18 08:39:57;;;;;;;7.47;4.07;;;1.30;80.40;;;;;;4975307;28;20026;-76
2023/01/18 08:42:22;;;;;;;4.32;3.40;;;1.30;80.10;;;;;;4958845;28;20053;-76
2023/01/18 08:44:49;;;;;;;3.75;2.65;;;1.30;79.60;;;;;;4975267;28;20058;-76
2023/01/18 08:47:16;;;;;;;3.05;2.60;;;1.20;79.30;;;;;;4957956;28;20038;-76
2023/01/18 08:49:42;;;;;;;4.97;3.58;;;1.30;79.10;;;;;;4992170;28;20485;-75
2023/01/18 08:52:09;;;;;;;6.88;4.65;;;1.20;79.10;;;;;;4974563;28;20117;-75
2023/01/18 08:54:35;;;;;;;5.80;3.63;;;1.30;79.50;;;;;;4973812;28;20111;-76
2023/01/18 08:57:01;;;;;;;7.55;5.35;;;1.10;79.60;;;;;;4974317;28;20034;-76
2023/01/18 08:59:27;;;;;;;7.13;5.10;;;1.10;80.10;;;;;;4974675;28;20031;-76
2023/01/18 09:01:54;;;;;;;4.85;4.05;;;1.10;80.30;;;;;;4975045;28;20114;-76
2023/01/18 09:04:19;;;;;;;7.40;3.47;;;1.30;79.20;;;;;;4992183;28;20594;-75
2023/01/18 09:06:45;;;;;;;6.22;3.60;;;1.40;77.60;;;;;;4974908;28;20019;-76
2023/01/18 09:09:11;;;;;;;5.55;3.08;;;1.40;76.90;;;;;;4974471;28;20083;-76
2023/01/18 09:11:37;;;;;;;4.55;3.35;;;1.60;76.50;;;;;;4974437;28;20117;-75
2023/01/18 09:14:03;;;;;;;4.53;3.25;;;1.80;75.50;;;;;;4974822;28;20053;-75
2023/01/18 09:16:30;;;;;;;5.20;3.40;;;2.00;75.50;;;;;;4974599;28;20022;-76
2023/01/18 09:18:57;;;;;;;6.53;3.53;;;2.30;73.70;;;;;;4974351;28;20179;-76
2023/01/18 09:21:26;;;;;;;6.22;2.90;;;2.10;72.80;;;;;;4974479;28;20027;-76
2023/01/18 09:23:52;;;;;;;5.75;2.35;;;2.50;71.50;;;;;;4974415;28;20504;-78
2023/01/18 09:26:19;;;;;;;5.95;2.90;;;2.60;69.70;;;;;;4974293;28;20109;-79
2023/01/18 09:28:52;;;;;;;6.78;2.65;;;3.00;69.30;;;;;;4974797;28;20126;-78
2023/01/18 09:31:19;;;;;;;2.58;2.22;;;3.30;67.90;;;;;;4974369;28;20054;-77
2023/01/18 09:33:45;;;;;;;4.55;2.55;;;3.60;66.40;;;;;;4974229;28;20034;-77
2023/01/18 09:36:12;;;;;;;4.70;2.15;;;3.80;64.50;;;;;;4974199;28;20027;-77
2023/01/18 09:38:39;;;;;;;4.75;2.60;;;3.70;64.40;;;;;;4973941;28;20042;-77
2023/01/18 09:41:13;;;;;;;4.43;2.40;;;4.00;63.70;;;;;;4973969;28;20026;-77
2023/01/18 09:43:47;;;;;;;6.63;2.92;;;3.50;63.40;;;;;;4973760;28;20026;-78
2023/01/18 09:46:17;;;;;;;4.38;2.90;;;3.40;65.00;;;;;;4991421;28;20463;-76
2023/01/18 09:48:44;;;;;;;3.70;2.38;;;3.50;65.90;;;;;;4974340;28;20062;-77
2023/01/18 09:51:21;;;;;;;3.47;2.22;;;3.60;64.80;;;;;;4979910;28;20031;-77
2023/01/18 09:54:05;;;;;;;7.13;2.67;;;4.00;63.60;;;;;;4996759;28;20459;-77
2023/01/18 09:56:50;;;;;;;3.77;2.27;;;4.00;62.40;;;;;;4934932;29;20423;-77
2023/01/18 09:59:19;;;;;;;2.80;1.92;;;4.20;61.90;;;;;;4935191;29;20042;-77
2023/01/18 10:01:47;;;;;;;3.17;2.03;;;4.20;60.90;;;;;;4952740;28;20104;-77
2023/01/18 10:04:37;;;;;;;3.15;2.00;;;4.30;61.30;;;;;;4935560;28;20031;-77
2023/01/18 10:07:10;;;;;;;6.05;2.78;;;4.20;61.00;;;;;;4935485;29;20453;-78
2023/01/18 10:09:43;;;;;;;3.80;2.58;;;4.10;61.40;;;;;;4950220;28;20436;-76
2023/01/18 10:12:42;;;;;;;4.00;2.25;;;4.10;62.00;;;;;;4935373;28;20096;-77
2023/01/18 10:15:20;;;;;;;4.95;2.58;;;3.90;61.80;;;;;;4952457;29;20444;-78
2023/01/18 10:17:48;;;;;;;4.63;2.13;;;3.90;61.40;;;;;;4935418;28;20035;-78
2023/01/18 10:20:25;;;;;;;2.83;2.30;;;3.50;62.20;;;;;;4935396;28;20037;-77
2023/01/18 10:23:13;;;;;;;5.50;2.42;;;3.30;63.10;;;;;;4935519;29;20072;-78
2023/01/18 10:25:51;;;;;;;4.25;2.38;;;3.00;64.10;;;;;;4951597;28;20023;-79
2023/01/18 10:29:01;;;;;;;4.20;2.22;;;2.90;65.10;;;;;;4935027;29;20464;-77
2023/01/18 10:31:39;;;;;;;4.88;2.75;;;2.80;65.70;;;;;;4936148;29;20039;-78
2023/01/18 10:34:16;;;;;;;5.75;2.90;;;2.60;66.50;;;;;;4957212;29;20026;-78
2023/01/18 10:36:47;;;;;;;6.63;2.97;;;2.70;67.00;;;;;;4953709;29;20038;-77
2023/01/18 10:39:36;;;;;;;5.43;2.63;;;2.90;67.20;;;;;;4940215;28;20036;-79
2023/01/18 10:42:05;;;;;;;4.65;2.50;;;3.00;67.50;;;;;;4973897;28;20057;-79
2023/01/18 10:44:31;;;;;;;5.38;3.42;;;3.00;67.40;;;;;;4973478;28;20136;-78
2023/01/18 10:46:59;;;;;;;5.15;3.17;;;3.00;68.30;;;;;;4973909;28;20137;-79
2023/01/18 10:49:38;;;;;;;6.70;3.53;;;3.00;68.30;;;;;;4974532;28;20031;-79
2023/01/18 10:52:29;;;;;;;5.13;2.67;;;3.00;68.50;;;;;;4973648;28;20027;-78
2023/01/18 10:55:00;;;;;;;6.38;3.40;;;2.90;68.20;;;;;;4973237;28;20049;-80
2023/01/18 10:57:42;;;;;;;6.20;3.78;;;2.90;67.40;;;;;;4973471;28;20027;-80
2023/01/18 11:00:25;;;;;;;6.18;3.58;;;2.70;68.10;;;;;;4973188;28;20118;-78
2023/01/18 11:02:54;;;;;;;6.63;3.80;;;2.60;68.30;;;;;;4990691;28;20035;-79
2023/01/18 11:05:32;;;;;;;5.57;3.10;;;2.60;68.90;;;;;;4973020;28;20137;-80
2023/01/18 11:08:22;;;;;;;5.10;3.25;;;2.50;68.80;;;;;;4973453;28;20026;-80
2023/01/18 11:11:16;;;;;;;5.57;3.60;;;2.50;69.60;;;;;;4962915;28;20088;-79
2023/01/18 11:13:44;;;;;;;7.10;3.97;;;2.50;69.80;;;;;;4976564;28;20084;-79
2023/01/18 11:16:21;;;;;;;6.90;4.00;;;2.40;69.30;;;;;;4975834;28;20023;-79
2023/01/18 11:19:24;;;;;;;7.60;4.20;;;2.30;69.60;;;;;;4976710;28;20038;-80
2023/01/18 11:21:51;;;;;;;10.82;4.90;;;2.20;69.80;;;;;;4973663;28;20034;-80
2023/01/18 11:24:28;;;;;;;9.02;4.57;;;2.20;70.50;;;;;;4976535;28;20152;-79
2023/01/18 11:27:04;;;;;;;5.82;3.33;;;2.00;70.20;;;;;;4976248;28;20019;-79
2023/01/18 11:29:33;;;;;;;7.80;4.00;;;1.80;69.70;;;;;;4976704;28;20022;-79
2023/01/18 11:32:12;;;;;;;5.88;3.38;;;1.40;69.10;;;;;;4976382;28;20059;-79
2023/01/18 11:34:45;;;;;;;7.72;4.00;;;1.20;69.80;;;;;;4976526;28;20116;-79
2023/01/18 11:37:34;;;;;;;4.65;3.30;;;1.00;70.00;;;;;;4977003;28;20035;-79
2023/01/18 11:40:26;;;;;;;11.55;5.47;;;1.00;70.20;;;;;;4976986;28;20478;-79
2023/01/18 11:42:57;;;;;;;9.35;4.75;;;1.00;71.20;;;;;;4976829;28;20034;-78
2023/01/18 11:45:39;;;;;;;8.55;4.57;;;1.00;70.30;;;;;;4976029;28;20029;-79
2023/01/18 11:48:36;;;;;;;9.60;4.20;;;1.10;70.00;;;;;;4976330;28;20242;-77
2023/01/18 11:51:26;;;;;;;9.65;4.70;;;1.30;70.00;;;;;;4975174;28;20041;-78
2023/01/18 11:54:15;;;;;;;8.20;4.30;;;1.30;68.80;;;;;;4975364;28;20479;-77
2023/01/18 11:56:46;;;;;;;9.85;4.43;;;1.40;68.10;;;;;;4992676;28;20110;-77
2023/01/18 11:59:33;;;;;;;8.23;4.82;;;1.40;67.20;;;;;;4975045;28;20065;-77
2023/01/18 12:02:04;;;;;;;5.03;2.45;;;1.40;67.70;;;;;;4975405;28;20033;-77
2023/01/18 12:04:59;;;;;;;4.20;2.67;;;1.30;67.60;;;;;;4975477;28;20421;-78
2023/01/18 12:07:31;;;;;;;6.07;3.05;;;1.30;68.50;;;;;;4975880;28;20430;-78
2023/01/18 12:10:00;;;;;;;4.05;2.83;;;1.30;69.50;;;;;;4970324;28;20046;-77
2023/01/18 12:12:32;;;;;;;10.63;3.85;;;1.30;69.40;;;;;;4975765;28;20015;-77
2023/01/18 12:15:19;;;;;;;8.15;3.75;;;1.30;70.60;;;;;;4975500;28;20022;-78
2023/01/18 12:17:48;;;;;;;5.47;2.85;;;1.20;70.50;;;;;;4973876;28;20057;-76
2023/01/18 12:20:41;;;;;;;4.72;2.67;;;1.10;69.90;;;;;;4974620;28;20117;-77
2023/01/18 12:23:21;;;;;;;3.35;2.28;;;1.00;69.60;;;;;;4975629;28;20113;-77
2023/01/18 12:26:14;;;;;;;4.60;2.90;;;0.90;70.10;;;;;;4976940;28;20171;-77
2023/01/18 12:29:15;;;;;;;3.63;2.08;;;0.90;70.40;;;;;;4975694;28;20100;-78
2023/01/18 12:32:04;;;;;;;6.22;2.67;;;0.80;70.60;;;;;;4950794;28;20058;-77
2023/01/18 12:34:40;;;;;;;7.47;3.45;;;0.80;70.80;;;;;;4975439;28;20037;-78
2023/01/18 12:37:30;;;;;;;5.50;2.63;;;0.90;70.90;;;;;;4975367;28;20034;-77
2023/01/18 12:40:06;;;;;;;5.25;2.47;;;0.80;70.30;;;;;;4975226;28;20091;-78
2023/01/18 12:42:32;;;;;;;5.30;2.70;;;0.80;69.50;;;;;;4975318;28;20122;-78
2023/01/18 12:45:11;;;;;;;3.60;2.70;;;0.80;69.30;;;;;;4975426;28;20105;-77
2023/01/18 12:47:40;;;;;;;5.03;2.97;;;0.90;69.20;;;;;;5009150;28;20395;-77
2023/01/18 12:50:27;;;;;;;5.30;2.85;;;0.90;68.80;;;;;;4998314;28;20015;-78
2023/01/18 12:52:59;;;;;;;7.20;3.97;;;1.00;68.00;;;;;;5056503;28;20025;-77
2023/01/18 12:55:30;;;;;;;7.97;4.10;;;1.10;67.80;;;;;;5053052;28;20056;-77
2023/01/18 12:57:58;;;;;;;6.00;3.30;;;1.20;67.70;;;;;;5053645;28;20492;-77
2023/01/18 13:00:28;;;;;;;4.28;2.83;;;1.30;67.00;;;;;;5053651;28;20029;-76
2023/01/18 13:02:56;;;;;;;6.05;2.67;;;1.40;66.20;;;;;;5053550;28;20025;-77
2023/01/18 13:05:46;;;;;;;5.15;2.38;;;1.50;66.30;;;;;;5054746;28;20025;-77
2023/01/18 13:08:19;;;;;;;5.82;2.95;;;1.60;65.90;;;;;;5053400;28;20031;-77
2023/01/18 13:10:46;;;;;;;5.18;2.60;;;1.70;66.70;;;;;;5053352;28;20048;-77
2023/01/18 13:13:18;;;;;;;5.57;2.65;;;1.70;66.20;;;;;;5053231;28;20025;-79
2023/01/18 13:15:55;;;;;;;4.35;2.40;;;1.90;66.20;;;;;;5053345;28;20396;-79
2023/01/18 13:18:41;;;;;;;4.28;2.45;;;1.90;65.20;;;;;;5052908;28;20523;-77
2023/01/18 13:21:39;;;;;;;5.85;2.70;;;1.80;65.40;;;;;;5053109;28;20028;-80
2023/01/18 13:24:26;;;;;;;5.20;2.92;;;1.80;65.30;;;;;;5053130;28;20041;-78
2023/01/18 13:26:52;;;;;;;5.53;3.20;;;1.80;65.50;;;;;;5051933;28;20112;-79
2023/01/18 13:29:28;;;;;;;7.15;3.45;;;1.80;65.30;;;;;;5052654;28;20060;-78
2023/01/18 13:31:55;;;;;;;5.20;3.13;;;1.90;65.90;;;;;;5053023;28;20045;-78
2023/01/18 13:34:37;;;;;;;22.58;3.45;;;1.90;65.60;;;;;;5052824;28;20025;-79
2023/01/18 13:37:08;;;;;;;4.32;2.75;;;2.30;79.50;;;;;;5053075;28;20071;-79
2023/01/18 13:39:45;;;;;;;5.65;3.08;;;2.20;66.10;;;;;;5052843;28;20039;-78
2023/01/18 13:42:33;;;;;;;5.22;3.22;;;2.00;63.90;;;;;;5052861;28;20028;-78
2023/01/18 13:45:21;;;;;;;6.32;3.28;;;1.90;64.90;;;;;;5052876;28;20032;-79
2023/01/18 13:48:35;;;;;;;4.38;3.03;;;1.80;65.70;;;;;;5053031;28;20021;-81
2023/01/18 13:51:02;;;;;;;5.60;3.75;;;1.90;68.10;;;;;;5051118;28;20357;-81